Time;durP1;ratioP1;P1;durP2;ratioP2;P2;SDS_P1;SDS_P2;PMS_P1;PMS_P2;Temp;Humidity;BMP_temperature;BMP_pressure;BME280_temperature;BME280_humidity;BME280_pressure;Samples;Min_cycle;Max_cycle;Signal;HPM_P1;HPM_P2
2020/12/27 00:00:47;;;;;;;4.82;4.20;;;2.30;99.90;;;;;;4935443;29;20220;-56
2020/12/27 00:03:15;;;;;;;4.25;2.60;;;2.30;99.90;;;;;;4935117;29;20181;-58
2020/12/27 00:05:44;;;;;;;8.80;3.80;;;2.40;99.90;;;;;;4935380;29;20201;-58
2020/12/27 00:08:11;;;;;;;7.07;3.72;;;2.40;99.90;;;;;;4935918;29;20643;-57
2020/12/27 00:10:38;;;;;;;4.78;3.67;;;2.40;99.90;;;;;;4935253;29;20757;-61
2020/12/27 00:13:06;;;;;;;7.60;3.72;;;2.40;99.90;;;;;;4935362;29;20689;-57
2020/12/27 00:15:33;;;;;;;4.50;3.80;;;2.30;99.90;;;;;;4935411;29;20208;-59
2020/12/27 00:18:00;;;;;;;10.15;3.72;;;2.30;99.90;;;;;;4935190;29;20201;-61
2020/12/27 00:20:28;;;;;;;4.82;2.80;;;2.30;99.90;;;;;;4934844;29;20264;-58
2020/12/27 00:22:55;;;;;;;6.90;3.63;;;2.30;99.90;;;;;;4934886;29;20269;-58
2020/12/27 00:25:22;;;;;;;8.40;3.35;;;2.30;99.90;;;;;;4935075;29;20217;-60
2020/12/27 00:27:50;;;;;;;4.00;3.28;;;2.30;99.90;;;;;;4934704;29;20228;-59
2020/12/27 00:30:18;;;;;;;5.68;3.88;;;2.30;99.90;;;;;;4934512;29;20217;-60
2020/12/27 00:32:45;;;;;;;5.65;3.85;;;2.30;99.90;;;;;;4935174;29;20192;-59
2020/12/27 00:35:12;;;;;;;10.45;4.50;;;2.30;99.90;;;;;;4934648;29;20177;-58
2020/12/27 00:37:40;;;;;;;4.50;4.10;;;2.30;99.90;;;;;;4934732;29;20303;-63
2020/12/27 00:40:07;;;;;;;3.38;3.10;;;2.30;99.90;;;;;;4935320;29;20754;-62
2020/12/27 00:42:34;;;;;;;4.28;3.15;;;2.30;99.90;;;;;;4935437;29;20191;-57
2020/12/27 00:45:01;;;;;;;4.72;3.03;;;2.20;99.90;;;;;;4934649;29;20662;-61
2020/12/27 00:47:29;;;;;;;4.10;3.33;;;2.20;99.90;;;;;;4935318;29;20201;-62
2020/12/27 00:49:56;;;;;;;8.07;2.58;;;2.10;99.90;;;;;;4918152;29;20236;-61
2020/12/27 00:52:23;;;;;;;3.85;2.95;;;2.10;99.90;;;;;;4917763;29;20243;-61
2020/12/27 00:54:51;;;;;;;5.20;2.58;;;2.00;99.90;;;;;;4935069;29;20196;-62
2020/12/27 00:57:18;;;;;;;7.38;3.95;;;2.00;99.90;;;;;;4936107;29;20245;-60
2020/12/27 00:59:45;;;;;;;4.38;3.45;;;2.00;99.90;;;;;;4936189;29;20219;-61
2020/12/27 01:02:16;;;;;;;5.32;2.92;;;1.90;99.90;;;;;;4918800;29;20199;-60
2020/12/27 01:04:47;;;;;;;5.95;3.83;;;1.90;99.90;;;;;;4937412;29;20208;-64
2020/12/27 01:07:24;;;;;;;5.82;3.33;;;1.90;99.90;;;;;;4918142;29;20188;-61
2020/12/27 01:10:12;;;;;;;5.53;4.22;;;1.90;99.90;;;;;;4917619;29;20220;-59
2020/12/27 01:12:40;;;;;;;5.68;4.05;;;1.90;99.90;;;;;;4942515;23;20241;-60
2020/12/27 01:15:11;;;;;;;5.05;3.55;;;1.80;99.90;;;;;;4893817;29;20218;-61
2020/12/27 01:17:59;;;;;;;3.63;2.92;;;1.80;99.90;;;;;;4879151;29;20285;-61
2020/12/27 01:20:27;;;;;;;8.60;4.82;;;1.80;99.90;;;;;;4908879;29;20214;-57
2020/12/27 01:22:54;;;;;;;6.15;5.00;;;1.80;99.90;;;;;;4878314;29;20255;-58
2020/12/27 01:25:28;;;;;;;4.70;2.72;;;1.80;99.90;;;;;;4879390;29;20214;-58
2020/12/27 01:27:56;;;;;;;3.85;2.38;;;1.70;99.90;;;;;;4907188;29;20203;-60
2020/12/27 01:30:23;;;;;;;3.53;2.33;;;1.70;99.90;;;;;;4876355;29;20241;-57
2020/12/27 01:32:57;;;;;;;5.28;3.10;;;1.70;99.90;;;;;;4876480;29;20205;-55
2020/12/27 01:35:39;;;;;;;6.70;5.85;;;1.70;99.90;;;;;;4876049;29;20190;-58
2020/12/27 01:38:06;;;;;;;5.47;3.33;;;1.70;99.90;;;;;;4876214;29;20845;-59
2020/12/27 01:40:34;;;;;;;2.75;2.40;;;1.70;99.90;;;;;;4877859;29;20634;-62
2020/12/27 01:43:02;;;;;;;4.05;2.08;;;1.70;99.90;;;;;;4877024;29;20203;-62
2020/12/27 01:45:29;;;;;;;4.13;2.40;;;1.70;99.90;;;;;;4876733;29;20211;-61
2020/12/27 01:48:12;;;;;;;7.63;3.53;;;1.70;99.90;;;;;;4876749;29;20194;-62
2020/12/27 01:50:42;;;;;;;3.33;2.85;;;1.60;99.90;;;;;;4876684;29;20229;-61
2020/12/27 01:53:13;;;;;;;3.72;3.08;;;1.70;99.90;;;;;;4876739;29;20250;-62
2020/12/27 01:55:41;;;;;;;3.05;2.80;;;1.60;99.90;;;;;;4907953;29;20195;-61
2020/12/27 01:58:16;;;;;;;9.10;4.03;;;1.60;99.90;;;;;;4878158;29;20190;-62
2020/12/27 02:01:09;;;;;;;4.18;3.08;;;1.60;99.90;;;;;;4876748;29;20223;-59
2020/12/27 02:03:41;;;;;;;3.17;2.38;;;1.60;99.90;;;;;;4892258;29;20198;-61
2020/12/27 02:06:40;;;;;;;7.05;3.20;;;1.60;99.90;;;;;;4880627;29;20221;-59
2020/12/27 02:09:19;;;;;;;6.35;3.78;;;1.60;99.90;;;;;;4876742;29;20603;-60
2020/12/27 02:12:06;;;;;;;9.20;3.25;;;1.60;99.90;;;;;;4908257;29;20281;-62
2020/12/27 02:14:39;;;;;;;3.70;3.40;;;1.60;99.90;;;;;;4876696;29;20198;-61
2020/12/27 02:17:07;;;;;;;3.20;2.70;;;1.50;99.90;;;;;;4907805;29;20203;-62
2020/12/27 02:19:53;;;;;;;3.92;2.90;;;1.50;99.90;;;;;;4878041;29;20322;-61
2020/12/27 02:22:34;;;;;;;4.13;3.13;;;1.50;99.90;;;;;;4876632;29;20206;-62
2020/12/27 02:25:21;;;;;;;4.72;2.72;;;1.50;99.90;;;;;;4878189;29;20186;-62
2020/12/27 02:27:58;;;;;;;7.70;3.45;;;1.60;99.90;;;;;;4864460;29;20222;-59
2020/12/27 02:30:28;;;;;;;9.93;4.50;;;1.50;99.90;;;;;;4881317;29;20219;-61
2020/12/27 02:32:59;;;;;;;4.30;3.05;;;1.50;99.90;;;;;;4864202;29;20229;-61
2020/12/27 02:35:30;;;;;;;2.35;2.08;;;1.50;99.90;;;;;;4879818;29;20199;-62
2020/12/27 02:37:58;;;;;;;3.22;2.75;;;1.50;99.90;;;;;;4864443;29;20559;-62
2020/12/27 02:40:26;;;;;;;3.42;2.88;;;1.50;99.90;;;;;;4879433;29;20218;-61
2020/12/27 02:43:20;;;;;;;4.70;3.72;;;1.50;99.90;;;;;;4885215;29;20568;-63
2020/12/27 02:45:51;;;;;;;5.43;3.35;;;1.50;99.90;;;;;;4863943;29;20226;-62
2020/12/27 02:48:37;;;;;;;2.92;2.67;;;1.50;99.90;;;;;;4881124;29;20213;-61
2020/12/27 02:51:11;;;;;;;7.80;4.40;;;1.60;99.90;;;;;;4879410;29;20205;-60
2020/12/27 02:53:39;;;;;;;6.57;4.20;;;1.50;99.90;;;;;;4879721;29;20199;-62
2020/12/27 02:56:08;;;;;;;3.28;3.08;;;1.50;99.90;;;;;;4864383;29;20668;-61
2020/12/27 02:58:36;;;;;;;4.65;2.92;;;1.50;99.90;;;;;;4879906;29;20568;-61
2020/12/27 03:01:04;;;;;;;6.20;3.88;;;1.50;99.90;;;;;;4879342;29;20723;-61
2020/12/27 03:03:49;;;;;;;5.43;3.75;;;1.50;99.90;;;;;;4880838;29;20197;-61
2020/12/27 03:06:36;;;;;;;2.38;2.10;;;1.50;99.90;;;;;;4879147;29;20302;-61
2020/12/27 03:09:12;;;;;;;4.45;2.17;;;1.50;99.90;;;;;;4879069;29;20726;-61
2020/12/27 03:11:59;;;;;;;3.67;2.22;;;1.50;99.90;;;;;;4880095;29;20193;-61
2020/12/27 03:14:26;;;;;;;3.92;2.20;;;1.50;99.90;;;;;;4863776;29;20741;-61
2020/12/27 03:17:13;;;;;;;3.30;3.00;;;1.50;99.90;;;;;;4879915;29;20668;-61
2020/12/27 03:19:56;;;;;;;2.75;2.55;;;1.50;99.90;;;;;;4878842;29;20338;-61
2020/12/27 03:22:49;;;;;;;3.55;3.28;;;1.50;99.90;;;;;;4880358;29;20175;-61
2020/12/27 03:25:21;;;;;;;3.50;1.63;;;1.50;99.90;;;;;;4878697;29;20198;-61
2020/12/27 03:27:49;;;;;;;2.95;2.42;;;1.60;99.90;;;;;;4880189;29;20545;-62
2020/12/27 03:30:16;;;;;;;2.78;2.08;;;1.50;99.90;;;;;;4878670;29;20583;-62
2020/12/27 03:32:44;;;;;;;5.28;3.15;;;1.50;99.90;;;;;;4909882;29;20202;-62
2020/12/27 03:35:11;;;;;;;4.00;2.50;;;1.50;99.90;;;;;;4879464;29;20201;-60
2020/12/27 03:37:39;;;;;;;4.38;2.80;;;1.50;99.90;;;;;;4878656;29;20198;-58
2020/12/27 03:40:35;;;;;;;1.90;1.58;;;1.60;99.90;;;;;;4880607;29;20227;-60
2020/12/27 03:43:11;;;;;;;4.75;2.95;;;1.60;99.90;;;;;;4880288;29;20194;-60
2020/12/27 03:45:41;;;;;;;3.08;2.28;;;1.60;99.90;;;;;;4863196;29;20305;-62
2020/12/27 03:48:23;;;;;;;2.72;1.80;;;1.50;99.90;;;;;;4880832;29;20187;-63
2020/12/27 03:51:05;;;;;;;4.75;3.75;;;1.60;99.90;;;;;;4879125;29;20400;-63
2020/12/27 03:53:32;;;;;;;1.90;1.70;;;1.60;99.90;;;;;;4863323;29;20684;-58
2020/12/27 03:56:21;;;;;;;13.32;3.60;;;1.60;99.90;;;;;;4878338;29;20218;-63
2020/12/27 03:59:09;;;;;;;2.97;2.70;;;1.60;99.90;;;;;;4878964;29;20222;-63
2020/12/27 04:01:48;;;;;;;5.72;3.17;;;1.60;99.90;;;;;;4862250;29;20672;-59
2020/12/27 04:04:16;;;;;;;6.40;3.10;;;1.50;99.90;;;;;;4877269;29;20190;-54
2020/12/27 04:06:57;;;;;;;3.70;2.70;;;1.50;99.90;;;;;;4861672;29;20211;-58
2020/12/27 04:09:36;;;;;;;2.53;2.33;;;1.50;99.90;;;;;;4877646;29;20210;-60
2020/12/27 04:12:05;;;;;;;2.08;1.88;;;1.50;99.90;;;;;;4877553;29;20203;-57
2020/12/27 04:14:34;;;;;;;2.88;1.95;;;1.50;99.90;;;;;;4877501;29;20273;-63
2020/12/27 04:17:01;;;;;;;3.42;2.50;;;1.60;99.90;;;;;;4862387;29;20222;-58
2020/12/27 04:19:29;;;;;;;4.32;3.25;;;1.60;99.90;;;;;;4862294;29;20714;-60
2020/12/27 04:22:01;;;;;;;2.63;2.00;;;1.60;99.90;;;;;;4862001;29;20572;-56
2020/12/27 04:24:45;;;;;;;1.88;1.77;;;1.50;99.90;;;;;;4861901;29;20202;-58
2020/12/27 04:27:14;;;;;;;3.00;2.10;;;1.50;99.90;;;;;;4877286;29;20206;-61
2020/12/27 04:29:43;;;;;;;2.10;1.90;;;1.50;99.90;;;;;;4877134;29;20286;-58
2020/12/27 04:32:14;;;;;;;4.20;2.65;;;1.50;99.90;;;;;;4877310;29;20285;-59
2020/12/27 04:34:57;;;;;;;2.33;2.13;;;1.50;99.90;;;;;;4877362;29;20198;-61
2020/12/27 04:37:32;;;;;;;4.05;3.55;;;1.50;99.90;;;;;;4861677;29;20195;-58
2020/12/27 04:40:25;;;;;;;5.50;2.58;;;1.60;99.90;;;;;;4878911;29;20651;-58
2020/12/27 04:42:55;;;;;;;4.30;2.38;;;1.50;99.90;;;;;;4877030;29;20676;-60
2020/12/27 04:45:39;;;;;;;2.75;2.28;;;1.50;99.90;;;;;;4877070;29;20659;-60
2020/12/27 04:48:44;;;;;;;5.78;2.78;;;1.50;99.90;;;;;;4877500;29;20251;-57
2020/12/27 04:51:32;;;;;;;2.83;2.63;;;1.50;99.90;;;;;;4876811;29;20206;-61
2020/12/27 04:54:26;;;;;;;4.35;2.70;;;1.40;99.90;;;;;;4877030;29;20685;-58
2020/12/27 04:57:03;;;;;;;4.65;3.42;;;1.50;99.90;;;;;;4876953;29;20214;-59
2020/12/27 04:59:31;;;;;;;4.70;2.97;;;1.40;99.90;;;;;;4877088;29;20226;-59
2020/12/27 05:02:01;;;;;;;2.65;2.33;;;1.40;99.90;;;;;;4876880;29;20199;-60
2020/12/27 05:04:33;;;;;;;3.30;2.58;;;1.40;99.90;;;;;;4876974;29;20380;-58
2020/12/27 05:07:19;;;;;;;3.75;2.55;;;1.40;99.90;;;;;;4861284;29;20191;-60
2020/12/27 05:10:05;;;;;;;2.78;2.50;;;1.40;99.90;;;;;;4878070;29;20221;-60
2020/12/27 05:12:38;;;;;;;2.70;2.47;;;1.30;99.90;;;;;;4877052;29;20215;-59
2020/12/27 05:15:06;;;;;;;2.10;1.98;;;1.30;99.90;;;;;;4876841;29;20615;-54
2020/12/27 05:17:35;;;;;;;4.72;3.25;;;1.30;99.90;;;;;;4876702;29;20220;-58
2020/12/27 05:20:12;;;;;;;7.40;3.80;;;1.30;99.90;;;;;;4861309;29;20222;-58
2020/12/27 05:22:42;;;;;;;1.40;1.20;;;1.30;99.90;;;;;;4876930;29;20202;-58
2020/12/27 05:25:16;;;;;;;3.10;2.80;;;1.30;99.90;;;;;;4876835;29;20187;-61
2020/12/27 05:28:09;;;;;;;3.70;2.97;;;1.30;99.90;;;;;;4877165;29;20214;-61
2020/12/27 05:30:54;;;;;;;5.97;2.88;;;1.20;99.90;;;;;;4878567;29;20242;-61
2020/12/27 05:33:42;;;;;;;8.40;2.25;;;1.20;99.90;;;;;;4878562;29;20201;-61
2020/12/27 05:36:45;;;;;;;4.82;2.63;;;1.20;99.90;;;;;;4876922;29;20214;-62
2020/12/27 05:39:32;;;;;;;1.80;1.70;;;1.20;99.90;;;;;;4878094;29;20373;-61
2020/12/27 05:42:15;;;;;;;1.80;1.65;;;1.20;99.90;;;;;;4876938;29;20229;-62
2020/12/27 05:44:42;;;;;;;4.10;3.05;;;1.20;99.90;;;;;;4877227;29;20210;-58
2020/12/27 05:47:11;;;;;;;2.58;2.38;;;1.20;99.90;;;;;;4877231;29;20198;-60
2020/12/27 05:49:39;;;;;;;4.43;3.15;;;1.20;99.90;;;;;;4877356;29;20723;-61
2020/12/27 05:52:14;;;;;;;4.82;4.38;;;1.20;99.90;;;;;;4877115;29;20675;-62
2020/12/27 05:54:48;;;;;;;3.10;2.78;;;1.10;99.90;;;;;;4861962;29;20246;-61
2020/12/27 05:57:22;;;;;;;2.22;2.03;;;1.10;99.90;;;;;;4877304;29;20219;-61
2020/12/27 05:59:54;;;;;;;3.33;3.03;;;1.10;99.90;;;;;;4862115;29;20795;-61
2020/12/27 06:02:41;;;;;;;5.53;3.40;;;1.10;99.90;;;;;;4882116;29;20187;-60
2020/12/27 06:06:01;;;;;;;4.28;3.85;;;1.00;99.90;;;;;;4878928;29;20310;-60
2020/12/27 06:09:06;;;;;;;3.97;2.35;;;1.10;99.90;;;;;;4974224;23;20271;-59
2020/12/27 06:11:53;;;;;;;2.95;2.28;;;1.10;99.90;;;;;;4902173;29;20643;-58
2020/12/27 06:14:37;;;;;;;2.90;2.70;;;1.10;99.90;;;;;;4917867;29;20201;-59
2020/12/27 06:17:41;;;;;;;3.17;2.88;;;1.00;99.90;;;;;;4918953;29;20300;-61
2020/12/27 06:20:34;;;;;;;8.68;3.67;;;1.00;99.90;;;;;;4918920;29;20217;-60
2020/12/27 06:23:04;;;;;;;5.68;2.38;;;1.00;99.90;;;;;;4902136;29;20197;-60
2020/12/27 06:25:37;;;;;;;2.50;2.08;;;0.90;99.90;;;;;;4902017;29;20284;-60
2020/12/27 06:28:06;;;;;;;4.40;2.28;;;0.90;99.90;;;;;;4902228;29;20624;-62
2020/12/27 06:31:10;;;;;;;2.78;2.25;;;1.00;99.90;;;;;;4883551;29;20225;-62
2020/12/27 06:33:52;;;;;;;4.93;3.15;;;1.00;99.90;;;;;;4901765;29;20190;-63
2020/12/27 06:36:38;;;;;;;3.50;1.67;;;1.00;99.90;;;;;;4918558;29;20700;-61
2020/12/27 06:39:28;;;;;;;6.25;2.50;;;1.00;99.90;;;;;;4901582;29;20217;-61
2020/12/27 06:42:08;;;;;;;4.57;3.75;;;1.00;99.90;;;;;;4901468;29;20225;-61
2020/12/27 06:45:06;;;;;;;3.90;2.25;;;1.00;99.90;;;;;;4917889;29;20284;-61
2020/12/27 06:48:05;;;;;;;4.97;2.00;;;0.90;99.90;;;;;;4918544;29;20232;-60
2020/12/27 06:50:48;;;;;;;5.05;3.28;;;1.00;99.90;;;;;;4901594;29;20757;-60
2020/12/27 06:53:41;;;;;;;1.45;1.30;;;0.90;99.90;;;;;;4901370;29;20632;-61
2020/12/27 06:56:36;;;;;;;3.08;1.85;;;1.00;99.90;;;;;;4901166;29;20292;-59
2020/12/27 06:59:25;;;;;;;3.97;2.15;;;1.10;99.90;;;;;;4901528;29;20443;-58
2020/12/27 07:02:05;;;;;;;2.25;1.52;;;1.10;99.90;;;;;;4918317;29;20647;-61
2020/12/27 07:04:36;;;;;;;2.78;1.85;;;1.10;99.90;;;;;;4918247;29;20261;-61
2020/12/27 07:07:04;;;;;;;3.20;1.60;;;1.10;99.90;;;;;;4918399;29;20249;-61
2020/12/27 07:09:37;;;;;;;4.72;2.80;;;1.10;99.90;;;;;;4918243;29;20585;-61
2020/12/27 07:12:06;;;;;;;3.50;2.72;;;1.10;99.90;;;;;;4917334;29;20581;-61
2020/12/27 07:14:38;;;;;;;6.13;2.08;;;1.10;99.90;;;;;;4993177;23;20705;-58
2020/12/27 07:17:06;;;;;;;2.33;1.80;;;1.20;99.90;;;;;;4938330;29;20201;-55
2020/12/27 07:19:35;;;;;;;2.88;1.80;;;1.20;99.90;;;;;;4938670;29;20217;-58
2020/12/27 07:22:05;;;;;;;3.33;1.60;;;1.20;99.90;;;;;;4941629;29;20181;-58
2020/12/27 07:24:35;;;;;;;3.65;2.60;;;1.20;99.90;;;;;;4937675;29;20252;-58
2020/12/27 07:27:04;;;;;;;2.70;1.33;;;1.20;99.90;;;;;;4937875;29;20240;-56
2020/12/27 07:29:33;;;;;;;2.90;1.63;;;1.30;99.90;;;;;;4936715;29;20402;-55
2020/12/27 07:32:00;;;;;;;2.70;1.40;;;1.30;99.90;;;;;;4936433;29;20201;-57
2020/12/27 07:34:29;;;;;;;5.60;2.25;;;1.30;99.90;;;;;;4937156;29;20256;-57
2020/12/27 07:37:01;;;;;;;4.05;2.50;;;1.30;99.90;;;;;;4936473;29;20201;-58
2020/12/27 07:39:53;;;;;;;4.43;1.85;;;1.30;99.90;;;;;;4936257;29;20217;-56
2020/12/27 07:42:26;;;;;;;4.03;1.67;;;1.30;99.90;;;;;;4936158;29;20249;-53
2020/12/27 07:44:56;;;;;;;2.00;1.50;;;1.30;99.90;;;;;;4919270;29;20265;-55
2020/12/27 07:47:23;;;;;;;2.47;1.70;;;1.30;99.90;;;;;;4936406;29;20185;-54
2020/12/27 07:50:08;;;;;;;4.28;1.83;;;1.30;99.90;;;;;;4936411;29;20303;-58
2020/12/27 07:52:52;;;;;;;3.00;1.85;;;1.30;99.90;;;;;;4935682;29;20193;-56
2020/12/27 07:55:29;;;;;;;1.65;1.45;;;1.30;99.90;;;;;;4935977;29;20221;-54
2020/12/27 07:57:58;;;;;;;1.48;1.10;;;1.30;99.90;;;;;;4935622;29;20197;-58
2020/12/27 08:00:28;;;;;;;2.28;1.38;;;1.30;99.90;;;;;;4935414;29;20213;-59
2020/12/27 08:02:56;;;;;;;2.38;1.45;;;1.30;99.90;;;;;;4935877;29;20677;-58
2020/12/27 08:05:23;;;;;;;1.30;1.20;;;1.30;99.90;;;;;;4918311;29;20185;-55
2020/12/27 08:07:54;;;;;;;1.65;1.52;;;1.30;99.90;;;;;;4935375;29;20173;-57
2020/12/27 08:10:24;;;;;;;17.55;2.97;;;1.30;99.90;;;;;;4935500;29;20253;-59
2020/12/27 08:12:57;;;;;;;4.40;2.00;;;1.30;99.90;;;;;;4935522;29;20203;-59
2020/12/27 08:15:27;;;;;;;1.70;1.30;;;1.30;99.90;;;;;;4935158;29;20205;-56
2020/12/27 08:17:56;;;;;;;3.38;2.33;;;1.30;99.90;;;;;;4935509;29;20205;-56
2020/12/27 08:20:23;;;;;;;1.00;0.90;;;1.30;99.90;;;;;;4935347;29;20216;-58
2020/12/27 08:23:08;;;;;;;1.95;1.52;;;1.40;99.90;;;;;;4935236;29;20192;-55
2020/12/27 08:25:36;;;;;;;3.78;1.60;;;1.30;99.90;;;;;;4935277;29;20929;-57
2020/12/27 08:28:07;;;;;;;3.40;1.67;;;1.40;99.90;;;;;;4935212;29;20181;-56
2020/12/27 08:30:35;;;;;;;2.35;1.45;;;1.40;99.90;;;;;;4935232;29;20713;-58
2020/12/27 08:33:04;;;;;;;1.80;1.35;;;1.40;99.90;;;;;;4935179;29;20585;-60
2020/12/27 08:35:31;;;;;;;1.98;1.00;;;1.30;99.90;;;;;;4935028;29;20228;-57
2020/12/27 08:38:22;;;;;;;1.80;1.67;;;1.40;99.90;;;;;;4935139;29;20205;-56
2020/12/27 08:41:01;;;;;;;1.55;1.05;;;1.40;99.90;;;;;;4935042;29;20204;-53
2020/12/27 08:43:41;;;;;;;3.00;1.42;;;1.40;99.90;;;;;;4917930;29;20193;-56
2020/12/27 08:46:14;;;;;;;1.38;0.95;;;1.40;99.90;;;;;;4935236;29;20181;-59
2020/12/27 08:48:49;;;;;;;1.95;1.65;;;1.40;99.90;;;;;;4934531;29;20552;-56
2020/12/27 08:51:18;;;;;;;1.80;1.58;;;1.50;99.90;;;;;;4935573;29;20536;-55
2020/12/27 08:53:46;;;;;;;2.95;2.25;;;1.50;99.90;;;;;;4935313;29;20200;-57
2020/12/27 08:56:14;;;;;;;1.48;1.35;;;1.60;99.90;;;;;;4935217;29;20209;-58
2020/12/27 08:58:54;;;;;;;2.67;2.47;;;1.60;99.90;;;;;;4935801;29;20204;-61
2020/12/27 09:01:23;;;;;;;2.75;1.98;;;1.60;99.90;;;;;;4935974;29;20219;-58
2020/12/27 09:03:50;;;;;;;2.53;2.08;;;1.60;99.90;;;;;;4936162;29;20189;-55
2020/12/27 09:06:18;;;;;;;1.70;0.95;;;1.60;99.90;;;;;;4937984;29;20201;-60
2020/12/27 09:08:45;;;;;;;2.15;1.40;;;1.60;99.90;;;;;;4922970;29;20281;-58
2020/12/27 09:11:12;;;;;;;3.15;1.27;;;1.70;99.90;;;;;;4938494;29;20612;-59
2020/12/27 09:13:41;;;;;;;2.97;1.55;;;1.70;99.90;;;;;;4937769;29;20196;-57
2020/12/27 09:16:10;;;;;;;1.33;1.20;;;1.70;99.90;;;;;;4937812;29;20584;-59
2020/12/27 09:18:37;;;;;;;1.02;0.93;;;1.70;99.90;;;;;;4937117;29;20205;-60
2020/12/27 09:21:06;;;;;;;1.70;1.60;;;1.70;99.90;;;;;;4936331;29;20216;-58
2020/12/27 09:23:34;;;;;;;1.60;1.50;;;1.70;99.90;;;;;;4937422;29;20188;-55
2020/12/27 09:26:06;;;;;;;1.50;1.20;;;1.70;99.90;;;;;;4935323;29;20183;-58
2020/12/27 09:28:35;;;;;;;3.00;1.77;;;1.70;99.90;;;;;;4934950;29;20181;-60
2020/12/27 09:31:04;;;;;;;5.72;1.70;;;1.70;99.90;;;;;;4935302;29;20600;-60
2020/12/27 09:33:36;;;;;;;1.73;1.40;;;1.70;99.90;;;;;;4934656;29;20180;-58
2020/12/27 09:36:05;;;;;;;1.73;1.42;;;1.70;99.90;;;;;;4936382;29;20254;-56
2020/12/27 09:38:35;;;;;;;2.38;1.27;;;1.80;99.90;;;;;;4921203;29;20215;-59
2020/12/27 09:41:03;;;;;;;1.63;1.17;;;1.80;99.90;;;;;;4938270;29;20216;-58
2020/12/27 09:43:31;;;;;;;2.20;1.50;;;1.80;99.90;;;;;;4938709;29;20193;-59
2020/12/27 09:45:58;;;;;;;1.20;0.82;;;1.80;99.90;;;;;;4938314;29;20233;-59
2020/12/27 09:48:31;;;;;;;2.22;1.67;;;1.80;99.90;;;;;;4937897;29;20195;-57
2020/12/27 09:51:14;;;;;;;3.00;1.42;;;1.80;99.90;;;;;;4937746;29;20565;-59
2020/12/27 09:53:43;;;;;;;4.18;2.90;;;1.80;99.90;;;;;;4940999;29;20188;-56
2020/12/27 09:56:11;;;;;;;1.38;1.00;;;1.90;99.90;;;;;;4941638;29;20748;-59
2020/12/27 09:58:39;;;;;;;1.60;1.20;;;1.80;99.90;;;;;;4941087;29;20247;-58
2020/12/27 10:01:07;;;;;;;4.90;1.35;;;1.80;99.90;;;;;;4939122;29;20240;-59
2020/12/27 10:03:34;;;;;;;3.88;1.52;;;1.80;99.90;;;;;;4937547;29;20189;-57
2020/12/27 10:06:02;;;;;;;2.70;1.90;;;1.90;99.90;;;;;;4920479;29;20197;-51
2020/12/27 10:08:30;;;;;;;2.55;1.73;;;1.90;99.90;;;;;;4937904;29;20192;-54
2020/12/27 10:10:57;;;;;;;1.38;1.05;;;1.90;99.90;;;;;;4937701;29;20307;-57
2020/12/27 10:13:24;;;;;;;1.92;1.73;;;2.00;99.90;;;;;;4937303;29;20208;-57
2020/12/27 10:15:51;;;;;;;1.65;1.55;;;2.00;99.90;;;;;;4938135;29;20185;-58
2020/12/27 10:18:19;;;;;;;3.78;2.75;;;2.00;99.90;;;;;;4938140;29;20212;-56
2020/12/27 10:20:46;;;;;;;2.72;1.45;;;2.00;99.90;;;;;;4937778;29;20338;-57
2020/12/27 10:23:14;;;;;;;4.70;2.30;;;2.10;99.90;;;;;;4938261;29;20200;-58
2020/12/27 10:25:41;;;;;;;3.95;2.47;;;2.00;99.90;;;;;;4938080;29;20217;-58
2020/12/27 10:28:08;;;;;;;2.42;1.98;;;2.00;99.90;;;;;;4937886;29;20202;-60
2020/12/27 10:30:35;;;;;;;3.05;1.67;;;2.10;99.90;;;;;;4937607;29;20227;-54
2020/12/27 10:33:02;;;;;;;1.60;1.17;;;2.10;99.90;;;;;;4937318;29;20177;-55
2020/12/27 10:35:29;;;;;;;3.70;2.42;;;2.10;99.90;;;;;;4937079;29;20604;-52
2020/12/27 10:37:56;;;;;;;9.73;2.38;;;2.10;99.90;;;;;;4936710;29;20561;-55
2020/12/27 10:40:24;;;;;;;2.80;1.65;;;2.10;99.90;;;;;;4919098;29;20753;-59
2020/12/27 10:42:51;;;;;;;17.70;2.53;;;2.10;99.90;;;;;;4936435;29;20185;-52
2020/12/27 10:45:18;;;;;;;2.42;2.15;;;2.20;99.90;;;;;;4936516;29;20197;-61
2020/12/27 10:47:45;;;;;;;2.00;1.80;;;2.10;99.90;;;;;;4936580;29;20550;-58
2020/12/27 10:50:13;;;;;;;10.20;1.52;;;2.10;99.90;;;;;;4936895;29;20268;-59
2020/12/27 10:52:40;;;;;;;3.38;1.85;;;2.10;99.90;;;;;;4937076;29;20545;-56
2020/12/27 10:55:08;;;;;;;2.38;1.50;;;2.10;99.90;;;;;;4936736;29;20224;-55
2020/12/27 10:57:35;;;;;;;2.28;1.40;;;2.20;99.90;;;;;;4936795;29;20208;-55
2020/12/27 11:00:04;;;;;;;1.65;1.52;;;2.10;99.90;;;;;;4937380;29;20289;-52
2020/12/27 11:02:31;;;;;;;3.10;0.80;;;2.20;99.90;;;;;;4937544;29;20186;-59
2020/12/27 11:04:58;;;;;;;3.92;3.28;;;2.20;99.90;;;;;;4934889;29;20196;-54
2020/12/27 11:07:31;;;;;;;2.97;2.10;;;2.20;99.90;;;;;;4945836;29;20188;-58
2020/12/27 11:09:59;;;;;;;3.03;1.40;;;2.30;99.90;;;;;;4956404;29;20204;-58
2020/12/27 11:12:26;;;;;;;4.47;2.45;;;2.20;99.90;;;;;;4956625;29;20189;-56
2020/12/27 11:14:54;;;;;;;3.05;1.65;;;2.30;99.90;;;;;;4956893;29;20267;-54
2020/12/27 11:17:23;;;;;;;2.10;1.70;;;2.40;99.90;;;;;;4957637;29;20582;-54
2020/12/27 11:19:50;;;;;;;1.85;1.70;;;2.50;99.90;;;;;;4957433;29;20300;-53
2020/12/27 11:22:18;;;;;;;2.88;1.58;;;2.40;99.90;;;;;;4958530;29;20188;-55
2020/12/27 11:24:45;;;;;;;1.70;1.60;;;2.50;99.90;;;;;;4956941;29;20204;-59
2020/12/27 11:27:12;;;;;;;2.22;2.00;;;2.40;99.90;;;;;;4957132;29;20260;-54
2020/12/27 11:29:39;;;;;;;2.65;1.23;;;2.40;99.90;;;;;;4956188;29;20219;-57
2020/12/27 11:32:07;;;;;;;2.38;2.05;;;2.50;99.90;;;;;;4955317;29;20192;-54
2020/12/27 11:34:34;;;;;;;1.92;1.75;;;2.50;99.90;;;;;;4955313;29;20392;-53
2020/12/27 11:37:01;;;;;;;1.67;1.20;;;2.60;99.90;;;;;;4954175;29;20223;-57
2020/12/27 11:39:28;;;;;;;2.47;1.75;;;2.60;99.90;;;;;;4926018;29;20221;-54
2020/12/27 11:41:56;;;;;;;2.13;1.77;;;2.50;99.90;;;;;;4927250;29;20287;-55
2020/12/27 11:44:23;;;;;;;2.05;1.85;;;2.50;99.90;;;;;;4933048;29;20189;-55
2020/12/27 11:46:50;;;;;;;2.05;1.50;;;2.50;99.90;;;;;;4930195;29;20219;-53
2020/12/27 11:49:18;;;;;;;3.03;1.92;;;2.50;99.90;;;;;;4927972;29;20224;-52
2020/12/27 11:51:46;;;;;;;1.77;1.60;;;2.40;99.90;;;;;;4921675;29;20212;-52
2020/12/27 11:54:14;;;;;;;1.50;1.15;;;2.40;99.90;;;;;;4936388;29;20189;-56
2020/12/27 11:56:43;;;;;;;2.47;1.70;;;2.30;99.90;;;;;;4930425;29;20193;-58
2020/12/27 11:59:12;;;;;;;3.78;2.15;;;2.40;99.90;;;;;;4926771;29;20725;-59
2020/12/27 12:01:41;;;;;;;1.80;1.17;;;2.50;99.90;;;;;;4923038;29;20189;-59
2020/12/27 12:04:08;;;;;;;1.48;1.38;;;2.50;99.90;;;;;;4928426;29;20193;-53
2020/12/27 12:06:36;;;;;;;2.10;1.00;;;2.50;99.90;;;;;;4932546;29;20276;-57
2020/12/27 12:09:04;;;;;;;1.40;1.27;;;2.50;99.90;;;;;;4934049;29;20200;-56
2020/12/27 12:11:33;;;;;;;2.78;1.25;;;2.50;99.90;;;;;;4935156;29;20197;-52
2020/12/27 12:14:00;;;;;;;3.00;1.83;;;2.50;99.90;;;;;;4935453;29;20689;-54
2020/12/27 12:16:29;;;;;;;6.28;1.63;;;2.50;99.90;;;;;;4932815;29;20184;-54
2020/12/27 12:18:57;;;;;;;2.55;2.15;;;2.50;99.90;;;;;;4926931;29;20289;-56
2020/12/27 12:21:24;;;;;;;1.67;1.58;;;2.50;99.90;;;;;;4922584;29;20574;-60
2020/12/27 12:23:53;;;;;;;1.70;1.00;;;2.50;99.90;;;;;;4932116;29;20196;-58
2020/12/27 12:26:22;;;;;;;3.78;1.27;;;2.60;99.90;;;;;;4919787;29;20216;-56
2020/12/27 12:28:50;;;;;;;2.20;1.30;;;2.60;99.90;;;;;;4915801;29;20558;-51
2020/12/27 12:31:18;;;;;;;2.38;1.08;;;2.70;99.90;;;;;;4915145;29;20184;-57
2020/12/27 12:33:46;;;;;;;1.10;0.90;;;2.70;99.90;;;;;;4915598;29;20225;-55
2020/12/27 12:36:15;;;;;;;1.25;1.10;;;2.70;99.90;;;;;;4929309;29;20185;-55
2020/12/27 12:38:43;;;;;;;4.13;1.52;;;2.80;99.90;;;;;;4916615;29;20260;-57
2020/12/27 12:41:12;;;;;;;1.58;1.10;;;2.80;99.90;;;;;;4944531;29;20188;-61
2020/12/27 12:43:39;;;;;;;1.20;1.10;;;2.80;99.90;;;;;;4940276;29;20694;-56
2020/12/27 12:46:07;;;;;;;1.00;0.90;;;2.80;99.90;;;;;;4921450;29;20272;-55
2020/12/27 12:48:35;;;;;;;2.97;1.70;;;2.90;99.90;;;;;;4915396;29;20380;-58
2020/12/27 12:51:02;;;;;;;1.73;1.63;;;2.90;99.90;;;;;;4927744;29;20219;-51
2020/12/27 12:53:29;;;;;;;1.55;1.00;;;2.90;99.90;;;;;;4934235;29;20195;-56
2020/12/27 12:55:57;;;;;;;1.10;0.85;;;2.90;99.90;;;;;;4921980;29;20678;-53
2020/12/27 12:58:25;;;;;;;1.50;1.23;;;2.80;99.90;;;;;;4914971;29;20269;-54
2020/12/27 13:00:52;;;;;;;1.23;1.02;;;2.80;99.90;;;;;;4915894;29;20269;-53
2020/12/27 13:03:19;;;;;;;2.28;1.45;;;2.80;99.90;;;;;;4915919;29;20666;-55
2020/12/27 13:05:47;;;;;;;4.03;1.25;;;2.80;99.90;;;;;;4925542;29;20279;-54
2020/12/27 13:08:14;;;;;;;1.35;1.25;;;2.70;99.90;;;;;;4933675;29;20197;-54
2020/12/27 13:10:41;;;;;;;1.88;1.25;;;2.60;99.90;;;;;;4933804;29;20217;-55
2020/12/27 13:13:10;;;;;;;1.85;1.08;;;2.60;99.90;;;;;;4934882;29;20224;-54
2020/12/27 13:15:38;;;;;;;1.88;1.42;;;2.60;99.90;;;;;;4936096;29;20185;-56
2020/12/27 13:18:05;;;;;;;2.50;2.13;;;2.60;99.90;;;;;;4936240;29;20216;-55
2020/12/27 13:20:32;;;;;;;2.67;1.52;;;2.60;99.90;;;;;;4938127;29;20594;-57
2020/12/27 13:22:59;;;;;;;1.15;0.95;;;2.50;99.90;;;;;;4935956;29;20177;-59
2020/12/27 13:25:26;;;;;;;7.22;1.10;;;2.50;99.90;;;;;;4918401;29;20193;-56
2020/12/27 13:27:53;;;;;;;1.70;0.95;;;2.50;99.90;;;;;;4920311;29;20212;-58